createdAt,value
2018-03-03T00:02:16.372Z,98710.72
2018-03-03T00:04:45.338Z,98703.66
2018-03-03T00:07:15.641Z,98699.00
2018-03-03T00:09:45.642Z,98698.03
2018-03-03T00:12:14.648Z,98695.87
2018-03-03T00:14:43.532Z,98695.00
2018-03-03T00:17:12.737Z,98694.99
2018-03-03T00:19:41.839Z,98694.62
2018-03-03T00:22:10.922Z,98688.70
2018-03-03T00:24:39.966Z,98693.00
2018-03-03T00:27:09.847Z,98680.36
2018-03-03T00:29:41.817Z,98677.81
2018-03-03T00:32:11.652Z,98657.66
2018-03-03T00:34:41.533Z,98648.45
2018-03-03T00:39:45.092Z,98635.95
2018-03-03T00:42:14.863Z,98628.98
2018-03-03T00:44:44.826Z,98622.12
2018-03-03T00:47:13.767Z,98627.95
2018-03-03T00:49:42.901Z,98618.54
2018-03-03T00:52:12.241Z,98608.50
2018-03-03T00:54:41.221Z,98599.42
2018-03-03T00:57:10.211Z,98590.27
2018-03-03T00:59:41.977Z,98583.05
2018-03-03T01:02:12.251Z,98577.47
2018-03-03T01:04:42.317Z,98557.42
2018-03-03T01:07:11.308Z,98554.98
2018-03-03T01:09:41.319Z,98541.30
2018-03-03T01:12:12.994Z,98533.05
2018-03-03T01:14:41.988Z,98523.75
2018-03-03T01:17:11.140Z,98521.22
2018-03-03T01:19:41.913Z,98514.94
2018-03-03T01:22:11.052Z,98517.56
2018-03-03T01:24:41.136Z,98524.04
2018-03-03T01:27:12.991Z,98511.53
2018-03-03T01:29:43.766Z,98513.64
2018-03-03T01:32:19.063Z,98511.85
2018-03-03T01:34:50.729Z,98516.42
2018-03-03T01:37:20.722Z,98523.37
2018-03-03T01:39:49.733Z,98525.20
2018-03-03T01:42:18.962Z,98526.41
2018-03-03T01:44:48.031Z,98537.91
2018-03-03T01:47:17.160Z,98538.14
2018-03-03T01:49:46.122Z,98544.99
2018-03-03T01:52:16.041Z,98537.13
2018-03-03T01:54:45.001Z,98524.44
2018-03-03T01:57:14.781Z,98525.20
2018-03-03T01:59:43.938Z,98524.75
2018-03-03T02:02:13.033Z,98533.06
2018-03-03T02:04:42.332Z,98521.67
2018-03-03T02:07:12.351Z,98528.80
2018-03-03T02:09:41.496Z,98527.52
2018-03-03T02:12:10.441Z,98526.27
2018-03-03T02:14:43.737Z,98527.09
2018-03-03T02:17:13.476Z,98525.90
2018-03-03T02:19:42.438Z,98519.95
2018-03-03T02:22:12.281Z,98527.91
2018-03-03T02:24:41.351Z,98527.38
2018-03-03T02:27:10.446Z,98520.13
2018-03-03T02:29:40.205Z,98519.64
2018-03-03T02:32:09.187Z,98523.81
2018-03-03T02:34:38.142Z,98527.42
2018-03-03T02:37:08.162Z,98521.34
2018-03-03T02:39:37.154Z,98524.87
2018-03-03T02:42:07.623Z,98525.91
2018-03-03T02:44:37.458Z,98524.19
2018-03-03T02:47:07.414Z,98526.28
2018-03-03T02:49:37.431Z,98516.09
2018-03-03T02:54:45.048Z,98501.88
2018-03-03T02:57:14.342Z,98507.30
2018-03-03T02:59:43.334Z,98504.33
2018-03-03T03:02:13.395Z,98502.63
2018-03-03T03:04:43.172Z,98508.03
2018-03-03T03:07:12.402Z,98514.19
2018-03-03T03:09:41.460Z,98519.80
2018-03-03T03:12:10.391Z,98519.81
2018-03-03T03:14:39.355Z,98517.55
2018-03-03T03:17:10.025Z,98515.63
2018-03-03T03:19:39.114Z,98515.67
2018-03-03T03:22:09.366Z,98515.63
2018-03-03T03:24:38.499Z,98508.76
2018-03-03T03:27:07.898Z,98502.27
2018-03-03T03:29:36.947Z,98495.42
2018-03-03T03:32:07.766Z,98488.98
2018-03-03T03:34:36.792Z,98469.67
2018-03-03T03:37:05.768Z,98476.62
2018-03-03T03:39:34.898Z,98473.28
2018-03-03T03:42:03.912Z,98464.97
2018-03-03T03:44:32.908Z,98463.63
2018-03-03T03:47:02.854Z,98457.62
2018-03-03T03:49:31.852Z,98447.34
2018-03-03T03:52:00.862Z,98452.75
2018-03-03T03:54:29.843Z,98453.86
2018-03-03T03:56:58.828Z,98452.05
2018-03-03T03:59:27.791Z,98449.02
2018-03-03T04:02:03.115Z,98448.30
2018-03-03T04:04:32.209Z,98448.70
2018-03-03T04:07:01.206Z,98449.08
2018-03-03T04:09:31.312Z,98448.77
2018-03-03T04:12:00.187Z,98434.80
2018-03-03T04:14:29.207Z,98436.15
2018-03-03T04:17:00.246Z,98434.91
2018-03-03T04:19:29.343Z,98427.86
2018-03-03T04:21:58.535Z,98433.72
2018-03-03T04:24:28.492Z,98446.22
2018-03-03T04:26:57.492Z,98443.91
2018-03-03T04:29:26.582Z,98450.13
2018-03-03T04:31:56.360Z,98449.39
2018-03-03T04:34:25.282Z,98453.22
2018-03-03T04:36:54.141Z,98461.91
2018-03-03T04:39:25.865Z,98470.03
2018-03-03T04:41:54.815Z,98466.15
2018-03-03T04:44:23.768Z,98452.19
2018-03-03T04:46:56.668Z,98447.86
2018-03-03T04:49:26.270Z,98459.14
2018-03-03T04:51:56.085Z,98443.53
2018-03-03T04:54:25.862Z,98435.97
2018-03-03T04:56:56.428Z,98434.66
2018-03-03T04:59:27.846Z,98422.50
2018-03-03T05:05:13.327Z,98433.67
2018-03-03T05:08:01.975Z,98437.72
2018-03-03T05:10:33.282Z,98443.58
2018-03-03T05:13:08.353Z,98456.83
2018-03-03T05:18:44.705Z,98443.08
2018-03-03T05:24:11.262Z,98436.44
2018-03-03T05:26:46.796Z,98438.63
2018-03-03T05:29:21.235Z,98431.47
2018-03-03T05:31:55.655Z,98438.67
2018-03-03T05:34:30.171Z,98437.06
2018-03-03T05:37:04.702Z,98446.41
2018-03-03T05:39:38.945Z,98457.19
2018-03-03T05:42:14.575Z,98463.36
2018-03-03T05:44:49.026Z,98471.16
2018-03-03T05:50:41.039Z,98500.28
2018-03-03T05:56:33.717Z,98491.22
2018-03-03T05:59:11.052Z,98488.77
2018-03-03T06:04:55.381Z,98478.76
2018-03-03T06:07:30.000Z,98467.69
2018-03-03T06:10:01.028Z,98473.75
2018-03-03T06:12:30.138Z,98477.05
2018-03-03T06:15:00.171Z,98466.52
2018-03-03T06:20:05.078Z,98475.66
2018-03-03T06:22:34.317Z,98477.11
2018-03-03T06:25:03.466Z,98486.39
2018-03-03T06:27:33.509Z,98502.95
2018-03-03T06:30:02.521Z,98508.11
2018-03-03T06:32:31.519Z,98524.66
2018-03-03T06:35:01.355Z,98530.69
2018-03-03T06:37:30.385Z,98552.95
2018-03-03T06:39:59.472Z,98562.08
2018-03-03T06:42:28.417Z,98579.61
2018-03-03T06:44:58.590Z,98589.36
2018-03-03T06:47:27.728Z,98585.66
2018-03-03T06:49:58.214Z,98584.98
2018-03-03T06:52:27.211Z,98586.69
2018-03-03T06:54:57.025Z,98591.19
2018-03-03T06:57:26.053Z,98586.52
2018-03-03T06:59:55.020Z,98579.84
2018-03-03T07:02:24.006Z,98579.62
2018-03-03T07:04:53.935Z,98576.70
2018-03-03T07:07:23.014Z,98568.59
2018-03-03T07:09:52.465Z,98560.26
2018-03-03T07:12:22.478Z,98554.55
2018-03-03T07:14:52.461Z,98545.80
2018-03-03T07:17:21.751Z,98549.58
2018-03-03T07:19:51.832Z,98558.45
2018-03-03T07:22:21.999Z,98559.41
2018-03-03T07:24:51.096Z,98558.68
2018-03-03T07:27:22.765Z,98545.62
2018-03-03T07:29:52.056Z,98551.05
2018-03-03T07:32:21.046Z,98544.02
2018-03-03T07:34:50.176Z,98559.50
2018-03-03T07:37:20.050Z,98561.48
2018-03-03T07:39:50.126Z,98569.75
2018-03-03T07:42:19.220Z,98575.52
2018-03-03T07:44:48.209Z,98594.90
2018-03-03T07:47:18.018Z,98598.63
2018-03-03T07:49:48.885Z,98614.56
2018-03-03T07:52:18.629Z,98606.44
2018-03-03T07:54:47.739Z,98600.22
2018-03-03T07:59:51.210Z,98600.55
2018-03-03T08:02:20.606Z,98607.65
2018-03-03T08:04:49.613Z,98609.77
2018-03-03T08:07:19.116Z,98594.02
2018-03-03T08:09:48.350Z,98593.70
2018-03-03T08:12:17.926Z,98592.16
2018-03-03T08:14:47.738Z,98595.28
2018-03-03T08:17:17.915Z,98575.48
2018-03-03T08:19:47.000Z,98578.59
2018-03-03T08:22:15.926Z,98570.92
2018-03-03T08:24:44.920Z,98569.38
2018-03-03T08:27:14.955Z,98557.45
2018-03-03T08:29:44.981Z,98545.15
2018-03-03T08:32:13.995Z,98547.91
2018-03-03T08:37:17.128Z,98532.98
2018-03-03T08:39:46.196Z,98552.03
2018-03-03T08:42:19.256Z,98556.48
2018-03-03T08:44:49.342Z,98556.81
2018-03-03T08:47:18.377Z,98564.26
2018-03-03T08:49:48.236Z,98573.26
2018-03-03T08:52:18.126Z,98581.06
2018-03-03T08:54:47.251Z,98587.91
2018-03-03T08:57:17.914Z,98589.53
2018-03-03T08:59:46.931Z,98588.83
2018-03-03T09:02:16.074Z,98592.71
2018-03-03T09:04:46.000Z,98596.20
2018-03-03T09:07:17.921Z,98605.17
2018-03-03T09:09:47.072Z,98623.87
2018-03-03T09:12:16.196Z,98637.03
2018-03-03T09:14:45.460Z,98631.80
2018-03-03T09:19:51.008Z,98637.55
2018-03-03T09:22:20.776Z,98638.86
2018-03-03T09:24:50.626Z,98638.05
2018-03-03T09:27:19.752Z,98642.77
2018-03-03T09:29:48.747Z,98647.29
2018-03-03T09:32:17.815Z,98658.61
2018-03-03T09:34:46.857Z,98660.47
2018-03-03T09:37:15.922Z,98667.02
2018-03-03T09:39:45.840Z,98670.36
2018-03-03T09:42:18.451Z,98670.40
2018-03-03T09:44:52.648Z,98664.42
2018-03-03T09:47:22.395Z,98662.67
2018-03-03T09:49:52.341Z,98665.42
2018-03-03T09:52:22.948Z,98663.38
2018-03-03T09:54:51.834Z,98677.63
2018-03-03T09:57:20.977Z,98673.63
2018-03-03T09:59:50.537Z,98672.63
2018-03-03T10:02:19.616Z,98665.93
2018-03-03T10:04:50.992Z,98679.86
2018-03-03T10:07:30.067Z,98684.34
2018-03-03T10:10:04.234Z,98682.64
2018-03-03T10:12:38.069Z,98679.67
2018-03-03T10:15:10.632Z,98697.16
2018-03-03T10:17:41.642Z,98691.23
2018-03-03T10:20:10.605Z,98698.30
2018-03-03T10:22:39.597Z,98690.91
2018-03-03T14:19:48.813Z,98774.32
2018-03-03T14:22:18.671Z,98775.10
2018-03-03T14:24:50.517Z,98781.45
2018-03-03T14:27:23.059Z,98777.67
2018-03-03T14:29:55.901Z,98778.59
2018-03-03T14:32:28.664Z,98780.36
2018-03-03T14:35:01.649Z,98782.34
2018-03-03T14:37:34.831Z,98787.11
2018-03-03T14:40:08.330Z,98790.87
2018-03-03T14:42:43.327Z,98773.22
2018-03-03T14:45:14.925Z,98792.36
2018-03-03T14:47:47.010Z,98793.69
2018-03-03T14:50:20.697Z,98796.18
2018-03-03T14:52:55.286Z,98794.61
2018-03-03T14:55:27.341Z,98811.80
2018-03-03T14:58:01.653Z,98820.90
2018-03-03T15:00:35.087Z,98825.08
2018-03-03T15:03:06.234Z,98814.18
2018-03-03T15:05:41.170Z,98832.42
2018-03-03T15:08:11.056Z,98829.58
2018-03-03T15:10:40.094Z,98827.02
2018-03-03T15:13:09.854Z,98830.06
2018-03-03T15:15:40.974Z,98825.41
2018-03-03T15:18:11.024Z,98823.51
2018-03-03T15:20:40.067Z,98834.47
2018-03-03T15:23:09.119Z,98843.42
2018-03-03T15:25:39.089Z,98850.06
2018-03-03T15:28:08.589Z,98858.53
2018-03-03T15:30:38.177Z,98861.80
2018-03-03T15:33:08.010Z,98870.59
2018-03-03T15:35:37.090Z,98871.40
2018-03-03T15:38:06.188Z,98875.29
2018-03-03T15:40:36.018Z,98872.58
2018-03-03T15:43:05.194Z,98874.59
2018-03-03T15:45:34.285Z,98878.05
2018-03-03T15:48:03.368Z,98887.70
2018-03-03T15:50:32.431Z,98887.35
2018-03-03T15:53:02.429Z,98892.27
2018-03-03T15:55:31.505Z,98892.89
2018-03-03T15:58:00.586Z,98899.64
2018-03-03T16:00:29.886Z,98893.14
2018-03-03T16:03:00.730Z,98894.13
2018-03-03T16:05:30.840Z,98897.80
2018-03-03T16:07:59.791Z,98901.70
2018-03-03T16:10:30.631Z,98906.39
2018-03-03T16:12:59.877Z,98915.87
2018-03-03T16:15:28.871Z,98926.09
2018-03-03T16:18:00.389Z,98939.16
2018-03-03T16:20:30.349Z,98937.66
2018-03-03T16:23:00.777Z,98949.87
2018-03-03T16:25:29.833Z,98950.50
2018-03-03T16:27:58.869Z,98949.31
2018-03-03T16:30:28.661Z,98958.56
2018-03-03T16:32:59.276Z,98962.39
2018-03-03T16:35:28.411Z,98961.09
2018-03-03T16:37:57.576Z,98959.59
2018-03-03T16:40:28.286Z,98976.55
2018-03-03T16:42:57.233Z,98984.44
2018-03-03T16:45:26.140Z,98987.86
2018-03-03T16:47:55.769Z,99003.17
2018-03-03T16:50:24.929Z,98999.72
2018-03-03T16:52:54.947Z,99008.81
2018-03-03T16:55:24.854Z,99008.60
2018-03-03T16:57:54.318Z,99010.52
2018-03-03T17:00:23.357Z,99017.45
2018-03-03T17:05:26.665Z,99027.77
2018-03-03T17:07:56.702Z,99031.21
2018-03-03T17:10:25.861Z,99032.28
2018-03-03T17:12:55.114Z,99043.22
2018-03-03T17:15:24.328Z,99048.19
2018-03-03T17:17:54.181Z,99053.24
2018-03-03T17:20:23.266Z,99049.48
2018-03-03T17:22:52.295Z,99053.24
2018-03-03T17:25:23.953Z,99040.52
2018-03-03T17:27:53.146Z,99041.05
2018-03-03T17:30:22.041Z,99041.88
2018-03-03T17:32:51.903Z,99048.24
2018-03-03T17:35:21.043Z,99053.38
2018-03-03T17:37:50.825Z,99054.77
2018-03-03T17:40:21.702Z,99065.48
2018-03-03T17:42:51.105Z,99064.02
2018-03-03T17:45:20.120Z,99068.34
2018-03-03T17:47:49.398Z,99060.74
2018-03-03T17:50:18.487Z,99059.14
2018-03-03T17:52:48.429Z,99052.09
2018-03-03T17:57:53.512Z,99045.08
2018-03-03T18:00:22.688Z,99058.76
2018-03-03T18:02:55.077Z,99055.59
2018-03-03T18:05:25.089Z,99056.77
2018-03-03T18:07:54.005Z,99055.62
2018-03-03T18:10:23.857Z,99048.40
2018-03-03T18:12:53.639Z,99055.09
2018-03-03T18:15:22.875Z,99043.83
2018-03-03T18:20:26.504Z,99062.20
2018-03-03T18:22:56.508Z,99057.98
2018-03-03T18:28:00.378Z,99063.55
2018-03-03T18:30:29.998Z,99046.77
2018-03-03T18:33:00.170Z,99049.22
2018-03-03T18:35:29.263Z,99056.76
2018-03-03T18:37:59.023Z,99052.95
2018-03-03T18:40:28.084Z,99045.33
2018-03-03T18:42:57.168Z,99056.58
2018-03-03T18:45:27.179Z,99048.91
2018-03-03T18:47:56.295Z,99048.09
2018-03-03T18:50:25.626Z,99045.93
2018-03-03T18:52:54.680Z,99048.86
2018-03-03T18:55:24.646Z,99054.67
2018-03-03T18:57:53.725Z,99057.57
2018-03-03T19:00:23.301Z,99059.19
2018-03-03T19:02:53.113Z,99059.81
2018-03-03T19:07:56.204Z,99052.51
2018-03-03T19:10:27.810Z,99041.64
2018-03-03T19:12:59.300Z,99046.61
2018-03-03T19:15:28.351Z,99041.59
2018-03-03T19:17:58.369Z,99043.62
2018-03-03T19:20:30.534Z,99036.80
2018-03-03T19:22:59.616Z,99036.79
2018-03-03T19:25:29.565Z,99049.03
2018-03-03T19:27:59.362Z,99048.20
2018-03-03T19:30:29.693Z,99047.06
2018-03-03T19:32:59.719Z,99054.75
2018-03-03T19:35:29.581Z,99052.47
2018-03-03T19:37:58.788Z,99046.61
2018-03-03T19:40:28.503Z,99040.71
2018-03-03T19:42:58.508Z,99039.41
2018-03-03T19:45:27.525Z,99035.69
2018-03-03T19:47:56.540Z,99033.09
2018-03-03T19:50:27.150Z,99022.57
2018-03-03T19:52:57.155Z,99014.58
2018-03-03T19:55:26.251Z,99025.03
2018-03-03T19:57:56.268Z,99025.14
2018-03-03T20:00:25.469Z,99033.68
2018-03-03T20:02:55.328Z,99031.03
2018-03-03T20:05:24.975Z,99034.38
2018-03-03T20:07:53.935Z,99028.94
2018-03-03T20:10:23.025Z,99023.95
2018-03-03T20:12:53.101Z,99012.98
2018-03-03T20:15:22.241Z,99011.31
2018-03-03T20:17:51.189Z,99005.02
2018-03-03T20:20:20.185Z,99013.45
2018-03-03T20:22:49.276Z,99008.41
2018-03-03T20:25:18.375Z,99012.78
2018-03-03T20:27:48.494Z,99008.52
2018-03-03T20:30:17.582Z,99007.33
2018-03-03T20:32:47.407Z,99012.52
2018-03-03T20:35:18.070Z,99013.34
2018-03-03T20:37:47.288Z,99023.89
2018-03-03T20:40:16.201Z,99015.98
2018-03-03T20:42:50.893Z,99019.04
2018-03-03T20:45:19.760Z,99037.19
2018-03-03T20:47:48.676Z,99043.94
2018-03-03T20:50:17.674Z,99038.97
2018-03-03T20:52:47.658Z,99035.19
2018-03-03T20:55:17.768Z,99044.16
2018-03-03T20:57:47.539Z,99049.27
2018-03-03T21:00:17.562Z,99066.09
2018-03-03T21:02:46.379Z,99066.56
2018-03-03T21:05:16.404Z,99071.37
2018-03-03T21:07:45.430Z,99079.19
2018-03-03T21:10:14.394Z,99090.09
2018-03-03T21:12:47.751Z,99099.73
2018-03-03T21:15:16.829Z,99096.38
2018-03-03T21:17:45.781Z,99086.70
2018-03-03T21:20:15.658Z,99098.12
2018-03-03T21:22:44.682Z,99099.44
2018-03-03T21:25:13.875Z,99090.21
2018-03-03T21:27:42.913Z,99099.52
2018-03-03T21:30:11.903Z,99113.81
2018-03-03T21:32:41.525Z,99110.05
2018-03-03T21:35:10.521Z,99113.04
2018-03-03T21:37:40.338Z,99115.70
2018-03-03T21:40:09.215Z,99113.97
2018-03-03T21:42:39.385Z,99127.39
2018-03-03T21:45:08.278Z,99126.02
2018-03-03T21:47:37.168Z,99134.45
2018-03-03T21:50:08.786Z,99137.06
2018-03-03T21:52:37.828Z,99148.50
2018-03-03T21:55:06.811Z,99143.84
2018-03-03T21:57:36.781Z,99151.53
2018-03-03T22:00:05.890Z,99139.80
2018-03-03T22:02:34.978Z,99132.76
2018-03-03T22:05:05.645Z,99148.72
2018-03-03T22:07:34.639Z,99132.37
2018-03-03T22:10:03.553Z,99126.52
2018-03-03T22:15:07.903Z,99114.77
2018-03-03T22:17:37.451Z,99119.80
2018-03-03T22:20:06.540Z,99120.23
2018-03-03T22:22:35.669Z,99112.69
2018-03-03T22:25:04.769Z,99101.35
2018-03-03T22:27:33.753Z,99109.32
2018-03-03T22:30:02.756Z,99108.05
2018-03-03T22:32:31.765Z,99103.44
2018-03-03T22:35:00.709Z,99104.70
2018-03-03T22:37:30.636Z,99107.64
2018-03-03T22:39:59.618Z,99121.47
2018-03-03T22:42:29.738Z,99115.17
2018-03-03T22:47:34.468Z,99122.72
2018-03-03T22:50:03.482Z,99125.24
2018-03-03T22:52:32.670Z,99125.65
2018-03-03T22:55:01.883Z,99119.39
2018-03-03T22:57:30.869Z,99113.50
2018-03-03T22:59:59.914Z,99127.30
2018-03-03T23:02:30.809Z,99121.86
2018-03-03T23:04:59.614Z,99119.34
2018-03-03T23:07:28.580Z,99124.37
2018-03-03T23:09:57.608Z,99093.72
2018-03-03T23:12:26.712Z,99117.63
2018-03-03T23:14:55.765Z,99117.63
2018-03-03T23:17:25.784Z,99117.20
2018-03-03T23:19:54.889Z,99113.86
2018-03-03T23:22:24.189Z,99109.63
2018-03-03T23:24:53.384Z,99109.20
2018-03-03T23:27:22.480Z,99099.95
2018-03-03T23:29:51.444Z,99115.06
2018-03-03T23:32:22.259Z,99117.16
2018-03-03T23:34:52.320Z,99115.91
2018-03-03T23:37:21.421Z,99118.83
2018-03-03T23:39:52.263Z,99121.34
2018-03-03T23:42:23.094Z,99120.04
2018-03-03T23:44:52.128Z,99115.89
2018-03-03T23:47:22.724Z,99120.92
2018-03-03T23:49:52.475Z,99116.73
2018-03-03T23:52:22.286Z,99112.14
2018-03-03T23:54:51.218Z,99114.66
2018-03-03T23:57:20.173Z,99108.37
2018-03-03T23:59:51.069Z,99107.48
